Time;durP1;ratioP1;P1;durP2;ratioP2;P2;SDS_P1;SDS_P2;PMS_P1;PMS_P2;Temp;Humidity;BMP_temperature;BMP_pressure;BME280_temperature;BME280_humidity;BME280_pressure;Samples;Min_cycle;Max_cycle;Signal;HPM_P1;HPM_P2
2023/07/14 00:01:42;;;;;;;2.30;1.70;;;;;;;21.84;100.00;98949.64;108438;1251;69034;-58
2023/07/14 00:04:11;;;;;;;1.80;1.70;;;;;;;21.86;100.00;98942.66;108375;1254;72339;-58
2023/07/14 00:06:40;;;;;;;2.20;2.10;;;;;;;21.90;100.00;98942.66;108161;1253;61429;-58
2023/07/14 00:09:18;;;;;;;3.30;2.40;;;;;;;21.94;100.00;98930.98;108384;1252;59672;-58
2023/07/14 00:11:46;;;;;;;2.70;2.00;;;;;;;21.96;100.00;98928.92;108399;1254;73075;-58
2023/07/14 00:14:14;;;;;;;2.10;1.90;;;;;;;21.97;100.00;98927.30;108392;1254;69045;-58
2023/07/14 00:16:42;;;;;;;2.10;2.00;;;;;;;21.96;100.00;98928.83;108479;1254;71776;-58
2023/07/14 00:19:14;;;;;;;4.40;2.30;;;;;;;21.94;100.00;98934.52;108514;1254;61502;-58
2023/07/14 00:21:43;;;;;;;4.00;2.20;;;;;;;21.97;100.00;98937.27;108569;1254;59795;-58
2023/07/14 00:24:14;;;;;;;2.60;2.40;;;;;;;21.99;100.00;98932.42;108540;1253;73699;-57
2023/07/14 00:26:43;;;;;;;2.30;2.20;;;;;;;22.01;100.00;98933.98;108476;1252;69137;-59
2023/07/14 00:29:26;;;;;;;2.70;2.50;;;;;;;22.05;100.00;98928.75;108545;1251;71067;-59
2023/07/14 00:31:55;;;;;;;2.70;2.50;;;;;;;22.06;100.00;98933.20;108472;1252;61348;-59
2023/07/14 00:34:23;;;;;;;5.10;2.50;;;;;;;22.03;100.00;98930.80;108541;1255;60676;-58
2023/07/14 00:36:52;;;;;;;3.60;2.30;;;;;;;22.03;100.00;98927.98;108539;1253;74623;-58
2023/07/14 00:39:19;;;;;;;2.90;2.70;;;;;;;22.04;100.00;98924.83;108404;1251;69138;-58
2023/07/14 00:41:48;;;;;;;4.30;2.70;;;;;;;22.07;100.00;98927.64;108505;1252;72437;-59
2023/07/14 00:44:15;;;;;;;4.60;3.00;;;;;;;22.10;100.00;98918.29;108370;1257;62409;-58
2023/07/14 00:46:44;;;;;;;3.00;2.80;;;;;;;22.15;100.00;98916.31;108379;1254;59947;-59
2023/07/14 00:49:21;;;;;;;4.40;2.70;;;;;;;22.18;100.00;98916.80;108359;1254;73675;-59
2023/07/14 00:51:49;;;;;;;2.80;2.60;;;;;;;22.17;100.00;98914.36;108034;1253;69232;-58
2023/07/14 00:54:27;;;;;;;3.10;2.80;;;;;;;22.19;100.00;98908.27;108428;1254;73354;-58
2023/07/14 00:56:55;;;;;;;3.70;3.40;;;;;;;22.20;100.00;98904.23;108421;1253;61399;-59
2023/07/14 00:59:33;;;;;;;3.40;3.20;;;;;;;22.19;100.00;98910.11;108533;1251;59674;-59
2023/07/14 01:02:10;;;;;;;3.50;3.20;;;;;;;22.19;100.00;98909.34;108519;1251;73584;-59
2023/07/14 01:04:38;;;;;;;3.70;3.40;;;;;;;22.19;100.00;98913.65;108509;1253;69508;-59
2023/07/14 01:07:06;;;;;;;3.70;3.40;;;;;;;22.18;100.00;98914.45;107907;1253;71496;-58
2023/07/14 01:09:34;;;;;;;3.10;2.90;;;;;;;22.16;100.00;98913.14;108391;1254;60412;-58
2023/07/14 01:12:02;;;;;;;4.60;3.70;;;;;;;22.18;100.00;98907.73;108373;1251;60702;-59
2023/07/14 01:14:39;;;;;;;4.60;3.40;;;;;;;22.21;100.00;98899.54;108219;1252;73668;-59
2023/07/14 01:17:07;;;;;;;3.80;3.20;;;;;;;22.23;100.00;98895.55;108213;1252;69145;-59
2023/07/14 01:19:44;;;;;;;3.00;2.80;;;;;;;22.25;100.00;98897.35;108117;1254;73483;-58
2023/07/14 01:22:20;;;;;;;3.50;3.10;;;;;;;22.27;100.00;98893.80;108561;1253;61808;-58
2023/07/14 01:25:23;;;;;;;5.00;3.60;;;;;;;22.27;100.00;98889.58;108095;1254;60100;-58
2023/07/14 01:27:51;;;;;;;4.60;3.20;;;;;;;22.28;100.00;98886.50;108278;1252;73973;-58
2023/07/14 01:30:19;;;;;;;3.80;3.50;;;;;;;22.30;100.00;98883.08;108581;1253;69126;-57
2023/07/14 01:32:49;;;;;;;6.60;3.50;;;;;;;22.35;100.00;98886.70;108483;1254;71125;-58
2023/07/14 01:35:18;;;;;;;3.90;3.60;;;;;;;22.35;100.00;98888.48;108553;1252;61483;-58
2023/07/14 01:37:46;;;;;;;4.00;3.60;;;;;;;22.35;100.00;98894.13;108344;1253;59696;-58
2023/07/14 01:40:17;;;;;;;4.50;4.10;;;;;;;22.36;100.00;98905.85;108531;1253;74459;-58
2023/07/14 01:42:48;;;;;;;4.70;3.80;;;;;;;22.34;100.00;98908.52;108598;1251;70334;-58
2023/07/14 01:45:16;;;;;;;4.50;4.00;;;;;;;22.29;100.00;98911.06;108472;1254;72888;-58
2023/07/14 01:47:46;;;;;;;4.20;3.80;;;;;;;22.23;100.00;98908.92;108281;1253;61451;-58
2023/07/14 01:50:26;;;;;;;4.30;3.90;;;;;;;22.22;100.00;98910.48;108431;1254;59687;-58
2023/07/14 01:53:00;;;;;;;4.60;4.20;;;;;;;22.22;100.00;98911.20;108350;1255;74385;-58
2023/07/14 01:55:32;;;;;;;5.40;4.20;;;;;;;22.19;100.00;98910.19;108338;1251;70054;-58
2023/07/14 01:58:06;;;;;;;5.10;4.00;;;;;;;22.24;100.00;98907.45;107982;1254;72892;-57
2023/07/14 02:00:34;;;;;;;5.80;4.00;;;;;;;22.28;100.00;98907.67;108101;1254;61363;-58
2023/07/14 02:03:02;;;;;;;4.40;4.00;;;;;;;22.29;100.00;98906.55;108264;1252;60677;-58
2023/07/14 02:05:32;;;;;;;4.40;4.00;;;;;;;22.28;100.00;98913.41;107806;1254;74511;-58
2023/07/14 02:08:02;;;;;;;7.10;4.00;;;;;;;22.30;100.00;98923.09;108429;1252;71043;-57
2023/07/14 02:10:31;;;;;;;4.60;4.20;;;;;;;22.33;100.00;98929.17;108336;1253;73065;-61
2023/07/14 02:13:00;;;;;;;4.60;4.20;;;;;;;22.33;100.00;98936.87;108315;1254;61450;-58
2023/07/14 02:15:30;;;;;;;5.10;4.60;;;;;;;22.35;100.00;98943.74;108117;1254;59702;-58
2023/07/14 02:17:58;;;;;;;4.50;4.10;;;;;;;22.37;100.00;98955.56;108343;1254;73691;-58
2023/07/14 02:20:28;;;;;;;4.60;4.10;;;;;;;22.37;100.00;98957.05;108055;1254;69269;-59
2023/07/14 02:22:56;;;;;;;7.20;5.00;;;;;;;22.37;100.00;98957.50;108282;1257;71378;-58
2023/07/14 02:25:26;;;;;;;6.70;4.50;;;;;;;22.37;100.00;98959.98;108300;1254;61393;-58
2023/07/14 02:27:53;;;;;;;4.70;4.40;;;;;;;22.35;100.00;98965.87;108483;1254;60640;-58
2023/07/14 02:30:22;;;;;;;5.20;4.80;;;;;;;22.32;100.00;98968.02;108487;1252;74603;-58
2023/07/14 02:33:14;;;;;;;4.60;4.30;;;;;;;22.27;100.00;98966.85;108491;1252;69964;-58
2023/07/14 02:35:54;;;;;;;5.60;5.00;;;;;;;22.29;100.00;98965.99;108390;1252;72329;-58
2023/07/14 02:38:22;;;;;;;5.40;5.00;;;;;;;22.31;100.00;98965.91;108473;1257;60837;-58
2023/07/14 02:40:52;;;;;;;6.10;5.60;;;;;;;22.29;100.00;98958.50;108524;1252;59001;-58
2023/07/14 02:43:22;;;;;;;5.80;5.30;;;;;;;22.24;100.00;98958.60;108238;1253;73635;-58
2023/07/14 02:45:58;;;;;;;6.20;5.70;;;;;;;22.23;100.00;98953.95;108561;1256;69802;-58
2023/07/14 02:48:45;;;;;;;6.50;5.90;;;;;;;22.23;100.00;98950.70;108412;1252;71513;-60
2023/07/14 02:51:13;;;;;;;5.80;5.40;;;;;;;22.21;100.00;98946.60;108154;1252;61389;-58
2023/07/14 02:53:41;;;;;;;6.10;5.60;;;;;;;22.21;100.00;98950.38;108462;1252;59737;-58
2023/07/14 02:56:09;;;;;;;6.60;5.70;;;;;;;22.20;100.00;98953.48;108310;1251;74497;-58
2023/07/14 02:58:37;;;;;;;7.10;6.40;;;;;;;22.17;100.00;98958.98;108448;1254;69980;-58
2023/07/14 03:01:06;;;;;;;7.80;6.60;;;;;;;22.14;100.00;98961.27;108580;1254;72276;-58
2023/07/14 03:03:35;;;;;;;8.30;6.80;;;;;;;22.09;100.00;98968.83;108529;1252;61781;-59
2023/07/14 03:06:03;;;;;;;7.00;6.40;;;;;;;22.07;100.00;98969.86;108542;1253;60675;-58
2023/07/14 03:08:32;;;;;;;6.30;5.80;;;;;;;22.04;100.00;98972.11;108511;1253;73564;-59
2023/07/14 03:10:59;;;;;;;;;;;;;;;22.03;100.00;98981.49;108432;1252;70142;-58
2023/07/14 03:13:27;;;;;;;;;;;;;;;22.02;100.00;98986.91;108293;1259;72366;-59
2023/07/14 03:15:55;;;;;;;6.60;6.00;;;;;;;22.00;100.00;98984.77;108507;1254;61775;-58
2023/07/14 03:18:23;;;;;;;6.80;6.10;;;;;;;21.98;100.00;98977.52;108602;1254;59797;-59
2023/07/14 03:20:57;;;;;;;7.30;6.10;;;;;;;21.96;100.00;98976.82;108530;1251;73564;-59
2023/07/14 03:23:25;;;;;;;6.70;6.00;;;;;;;21.95;100.00;98973.70;108450;1253;69647;-59
2023/07/14 03:25:53;;;;;;;7.20;6.60;;;;;;;21.98;100.00;98976.10;108453;1254;72205;-59
2023/07/14 03:28:21;;;;;;;7.20;6.10;;;;;;;22.01;100.00;98977.16;108323;1254;61634;-58
2023/07/14 03:30:49;;;;;;;7.30;6.70;;;;;;;21.99;100.00;98982.70;108528;1256;60147;-59
2023/07/14 03:33:18;;;;;;;7.20;6.50;;;;;;;21.98;100.00;98985.94;108563;1254;73686;-58
2023/07/14 03:35:45;;;;;;;7.60;6.20;;;;;;;21.95;100.00;98991.48;108543;1253;70110;-59
2023/07/14 03:38:13;;;;;;;6.60;6.00;;;;;;;21.94;100.00;98992.36;108526;1254;72207;-59
2023/07/14 03:40:41;;;;;;;8.30;7.30;;;;;;;21.91;100.00;98989.99;108205;1253;61422;-59
2023/07/14 03:43:09;;;;;;;6.90;6.30;;;;;;;21.85;100.00;98995.91;108491;1254;58501;-59
2023/07/14 03:45:36;;;;;;;8.10;6.40;;;;;;;21.82;100.00;98998.55;108568;1253;73637;-59
2023/07/14 03:48:04;;;;;;;6.60;6.20;;;;;;;21.85;100.00;98993.59;108497;1251;69171;-59
2023/07/14 03:50:33;;;;;;;6.10;5.60;;;;;;;21.85;100.00;98997.04;108339;1253;72527;-59
2023/07/14 03:53:01;;;;;;;7.40;6.50;;;;;;;21.82;100.00;98999.59;108361;1252;61462;-58
2023/07/14 03:55:31;;;;;;;6.40;5.90;;;;;;;21.77;100.00;99004.06;108334;1254;59827;-59
2023/07/14 03:57:58;;;;;;;7.00;6.40;;;;;;;21.69;100.00;99008.92;108552;1254;73691;-59
2023/07/14 04:00:32;;;;;;;8.00;7.10;;;;;;;21.67;100.00;99010.74;108566;1254;68510;-59
2023/07/14 04:03:02;;;;;;;7.40;6.80;;;;;;;21.61;100.00;99012.90;108490;1252;72507;-58
2023/07/14 04:05:31;;;;;;;7.70;7.10;;;;;;;21.64;100.00;99022.86;108145;1254;61838;-59
2023/07/14 04:07:58;;;;;;;7.60;6.60;;;;;;;21.59;100.00;99024.17;108527;1252;59892;-60
2023/07/14 04:10:26;;;;;;;7.90;7.20;;;;;;;21.58;100.00;99027.61;108385;1254;74480;-58
2023/07/14 04:12:53;;;;;;;;;;;;;;;21.62;100.00;99032.14;108047;1254;69085;-58
2023/07/14 04:15:21;;;;;;;8.10;7.40;;;;;;;21.60;100.00;99034.11;108474;1253;71160;-59
2023/07/14 04:17:49;;;;;;;9.40;7.70;;;;;;;21.60;100.00;99036.57;108357;1254;61819;-58
2023/07/14 04:20:17;;;;;;;8.70;7.90;;;;;;;21.63;100.00;99035.89;108514;1253;59722;-58
2023/07/14 04:22:45;;;;;;;8.10;7.40;;;;;;;21.64;100.00;99040.83;108525;1254;74401;-59
2023/07/14 04:25:12;;;;;;;8.60;7.90;;;;;;;21.64;100.00;99044.16;108543;1254;69208;-59
2023/07/14 04:27:40;;;;;;;9.80;7.40;;;;;;;21.62;100.00;99049.08;108496;1254;71785;-58
2023/07/14 04:30:08;;;;;;;;;;;;;;;21.64;100.00;99049.02;108511;1252;61387;-59
2023/07/14 04:32:36;;;;;;;8.90;8.10;;;;;;;21.61;100.00;99049.33;108540;1253;60081;-58
2023/07/14 04:35:04;;;;;;;9.10;8.30;;;;;;;21.58;100.00;99050.14;108527;1252;73745;-59
2023/07/14 04:37:32;;;;;;;8.70;8.00;;;;;;;21.59;100.00;99055.07;108470;1252;69560;-58
2023/07/14 04:39:59;;;;;;;9.00;8.10;;;;;;;21.60;100.00;99058.14;108570;1254;72349;-59
2023/07/14 04:42:28;;;;;;;9.90;8.90;;;;;;;21.59;100.00;99070.35;108486;1252;61400;-59
2023/07/14 04:44:55;;;;;;;9.10;8.10;;;;;;;21.59;100.00;99069.65;108585;1252;60007;-58
2023/07/14 04:47:23;;;;;;;9.10;8.20;;;;;;;21.59;100.00;99071.91;108551;1250;73784;-59
2023/07/14 04:49:51;;;;;;;9.10;7.90;;;;;;;21.62;100.00;99073.09;108514;1254;70029;-58
2023/07/14 04:52:18;;;;;;;9.60;8.60;;;;;;;21.63;100.00;99081.73;108498;1254;71783;-59
2023/07/14 04:54:46;;;;;;;8.80;8.00;;;;;;;21.64;100.00;99082.70;108454;1253;61472;-59
2023/07/14 04:57:13;;;;;;;9.20;8.30;;;;;;;21.64;100.00;99086.48;108514;1252;59721;-59
2023/07/14 04:59:43;;;;;;;8.90;8.10;;;;;;;21.64;100.00;99086.63;108576;1252;73612;-59
2023/07/14 05:02:10;;;;;;;10.00;9.00;;;;;;;21.66;100.00;99088.63;108546;1251;69446;-60
2023/07/14 05:04:40;;;;;;;10.90;8.30;;;;;;;21.67;100.00;99088.80;108595;1253;72363;-58
2023/07/14 05:07:27;;;;;;;8.90;8.20;;;;;;;21.68;100.00;99088.23;108353;1254;61473;-59
2023/07/14 05:09:55;;;;;;;8.60;7.80;;;;;;;21.67;100.00;99081.67;108552;1253;59748;-58
2023/07/14 05:12:23;;;;;;;9.20;8.40;;;;;;;21.68;100.00;99078.93;108524;1253;73615;-59
2023/07/14 05:14:50;;;;;;;9.00;8.20;;;;;;;21.66;100.00;99075.79;108506;1253;70236;-58
2023/07/14 05:17:18;;;;;;;;;;;;;;;21.60;100.00;99079.34;108503;1253;72297;-58
2023/07/14 05:19:45;;;;;;;9.00;8.20;;;;;;;21.56;100.00;99073.86;108507;1253;60596;-57
2023/07/14 05:22:13;;;;;;;8.60;7.90;;;;;;;21.52;100.00;99077.06;108463;1253;59748;-57
2023/07/14 05:24:41;;;;;;;8.70;7.90;;;;;;;21.52;100.00;99072.98;108466;1253;73771;-56
2023/07/14 05:27:08;;;;;;;9.30;8.40;;;;;;;21.48;100.00;99075.02;108480;1252;69211;-57
2023/07/14 05:29:36;;;;;;;;;;;;;;;21.47;100.00;99079.77;108521;1254;72440;-57
2023/07/14 05:32:04;;;;;;;9.00;8.00;;;;;;;21.45;100.00;99077.09;108493;1254;61444;-57
2023/07/14 05:34:32;;;;;;;;;;;;;;;21.44;100.00;99079.30;108516;1253;59912;-57
2023/07/14 05:39:55;;;;;;;9.20;8.30;;;;;;;21.14;100.00;99088.55;101198;1297;616078;-55
2023/07/14 05:42:22;;;;;;;8.90;7.90;;;;;;;21.46;100.00;99102.13;103828;1273;59365;-55
2023/07/14 05:44:49;;;;;;;10.40;8.50;;;;;;;21.43;100.00;99102.37;103859;1268;60155;-56
2023/07/14 05:47:16;;;;;;;12.80;8.10;;;;;;;21.39;100.00;99109.56;103841;1267;72027;-56
2023/07/14 05:49:43;;;;;;;9.80;8.20;;;;;;;21.36;100.00;99109.94;104069;1267;69162;-56
2023/07/14 05:52:12;;;;;;;8.50;7.70;;;;;;;21.35;100.00;99108.07;103590;1272;190357;-56
2023/07/14 05:54:38;;;;;;;8.90;7.60;;;;;;;21.32;100.00;99108.02;104152;1267;61672;-57
2023/07/14 05:57:06;;;;;;;10.30;8.00;;;;;;;21.32;100.00;99105.95;103959;1267;60035;-57
2023/07/14 05:59:33;;;;;;;8.60;7.80;;;;;;;21.31;100.00;99101.39;104095;1263;72716;-56
2023/07/14 06:02:00;;;;;;;10.80;8.40;;;;;;;21.25;100.00;99097.38;104063;1286;69219;-59
2023/07/14 06:04:27;;;;;;;11.70;8.10;;;;;;;21.26;100.00;99101.70;103962;1269;73174;-56
2023/07/14 06:06:54;;;;;;;8.50;7.80;;;;;;;21.28;100.00;99108.23;107216;1263;61826;-57
2023/07/14 06:09:20;;;;;;;8.00;7.20;;;;;;;21.31;100.00;99117.44;106260;1263;59640;-54
2023/07/14 06:11:47;;;;;;;11.90;7.90;;;;;;;21.34;100.00;99126.98;104354;1263;73340;-54
2023/07/14 06:14:19;;;;;;;10.30;8.70;;;;;;;21.36;100.00;99131.21;104560;1264;69909;-56
2023/07/14 06:16:46;;;;;;;10.30;8.00;;;;;;;21.34;100.00;99132.77;104500;1268;71918;-56
2023/07/14 06:19:14;;;;;;;8.70;8.00;;;;;;;21.37;100.00;99132.31;103980;1264;60427;-56
2023/07/14 06:21:41;;;;;;;9.60;8.70;;;;;;;21.37;100.00;99128.23;104224;1263;60065;-56
2023/07/14 06:24:09;;;;;;;11.20;8.60;;;;;;;21.41;100.00;99125.74;103668;1270;73577;-56
2023/07/14 06:26:37;;;;;;;8.90;8.10;;;;;;;21.46;100.00;99123.71;103921;1283;70354;-56
2023/07/14 06:29:05;;;;;;;8.90;8.10;;;;;;;21.51;100.00;99125.89;104003;1263;72429;-56
2023/07/14 06:31:33;;;;;;;10.00;8.00;;;;;;;21.58;100.00;99123.98;104008;1272;62098;-57
2023/07/14 06:34:00;;;;;;;8.60;7.80;;;;;;;21.65;100.00;99127.03;104159;1280;59657;-55
2023/07/14 06:36:27;;;;;;;10.20;8.70;;;;;;;21.72;100.00;99125.20;104308;1260;72654;-57
2023/07/14 06:38:55;;;;;;;9.40;8.00;;;;;;;21.78;100.00;99126.87;103955;1257;70127;-55
2023/07/14 06:41:22;;;;;;;9.30;8.40;;;;;;;21.84;100.00;99129.29;104298;1270;72357;-59
2023/07/14 06:43:49;;;;;;;;;;;;;;;21.90;100.00;99131.49;104134;1264;62386;-56
2023/07/14 06:46:17;;;;;;;15.10;8.50;;;;;;;21.97;100.00;99136.59;104196;1273;60263;-55
2023/07/14 06:48:45;;;;;;;9.70;8.70;;;;;;;21.98;100.00;99139.33;104407;1261;73122;-55
2023/07/14 06:51:13;;;;;;;8.40;7.70;;;;;;;21.98;100.00;99140.91;104269;1257;68502;-56
2023/07/14 06:53:41;;;;;;;9.30;8.10;;;;;;;22.02;100.00;99145.42;104425;1261;72561;-56
2023/07/14 06:56:08;;;;;;;;;;;;;;;22.03;100.00;99146.55;104238;1256;62150;-56
2023/07/14 06:58:35;;;;;;;11.90;9.30;;;;;;;21.99;100.00;99157.05;104355;1269;59810;-56
2023/07/14 07:01:02;;;;;;;9.20;8.40;;;;;;;21.92;100.00;99160.02;104343;1257;71478;-57
2023/07/14 07:03:30;;;;;;;9.20;8.50;;;;;;;21.91;100.00;99164.96;104393;1263;69286;-56
2023/07/14 07:05:56;;;;;;;9.30;8.60;;;;;;;21.92;100.00;99172.41;104462;1261;72550;-55
2023/07/14 07:08:24;;;;;;;9.60;8.70;;;;;;;21.93;100.00;99174.74;107807;1257;61754;-58
2023/07/14 07:10:52;;;;;;;9.00;8.20;;;;;;;21.94;100.00;99179.33;106718;1258;59457;-55
2023/07/14 07:13:18;;;;;;;12.80;8.80;;;;;;;21.95;100.00;99183.64;105163;1258;73529;-55
2023/07/14 07:15:45;;;;;;;11.70;9.00;;;;;;;21.98;100.00;99193.76;104574;1260;69265;-55
2023/07/14 07:18:18;;;;;;;10.50;8.50;;;;;;;22.00;100.00;99200.48;104683;1261;73180;-55
2023/07/14 07:20:45;;;;;;;9.30;8.40;;;;;;;22.00;100.00;99204.05;104644;1258;61820;-55
2023/07/14 07:23:12;;;;;;;9.70;8.80;;;;;;;22.01;100.00;99208.63;104293;1258;59791;-55
2023/07/14 07:25:46;;;;;;;10.50;9.50;;;;;;;22.03;100.00;99211.28;104240;1257;73139;-54
2023/07/14 07:28:13;;;;;;;9.90;9.00;;;;;;;22.06;100.00;99213.36;104175;1260;70060;-55
2023/07/14 07:30:40;;;;;;;9.50;8.60;;;;;;;22.02;100.00;99214.82;104359;1257;73354;-55
2023/07/14 07:33:07;;;;;;;9.00;8.20;;;;;;;22.03;100.00;99220.89;104282;1272;60633;-54
2023/07/14 07:35:40;;;;;;;9.10;8.00;;;;;;;22.08;100.00;99222.39;104436;1261;59991;-55
2023/07/14 07:38:10;;;;;;;9.30;7.60;;;;;;;22.10;100.00;99222.23;104205;1276;73451;-55
2023/07/14 07:40:38;;;;;;;8.30;7.50;;;;;;;22.08;100.00;99230.95;104341;1257;69739;-55
2023/07/14 07:43:04;;;;;;;;;;;;;;;22.06;100.00;99234.74;104347;1257;73383;-54
2023/07/14 07:45:32;;;;;;;10.80;7.10;;;;;;;22.05;100.00;99239.46;104620;1266;61875;-56
2023/07/14 07:47:59;;;;;;;10.10;7.70;;;;;;;22.02;100.00;99243.14;104302;1266;59764;-55
2023/07/14 07:50:26;;;;;;;11.50;8.00;;;;;;;21.95;100.00;99254.13;104463;1256;72811;-55
2023/07/14 07:52:54;;;;;;;8.40;7.30;;;;;;;21.94;100.00;99258.92;104144;1267;69206;-55
2023/07/14 07:55:20;;;;;;;8.50;7.70;;;;;;;21.94;100.00;99259.79;104363;1263;72282;-55
2023/07/14 07:57:48;;;;;;;10.30;7.80;;;;;;;21.99;100.00;99263.23;104294;1264;61758;-55
2023/07/14 08:00:15;;;;;;;9.70;7.30;;;;;;;21.97;100.00;99261.40;104345;1256;60008;-55
2023/07/14 08:02:43;;;;;;;7.70;6.80;;;;;;;21.97;100.00;99255.38;104323;1264;73631;-55
2023/07/14 08:05:14;;;;;;;8.20;6.90;;;;;;;22.02;100.00;99249.38;104264;1272;69326;-55
2023/07/14 08:07:41;;;;;;;9.00;7.10;;;;;;;22.07;100.00;99248.88;104698;1257;72283;-57
2023/07/14 08:10:10;;;;;;;8.10;6.70;;;;;;;22.12;100.00;99248.83;107708;1256;61625;-56
2023/07/14 08:12:36;;;;;;;10.20;6.60;;;;;;;22.16;100.00;99249.48;104839;1257;59782;-57
2023/07/14 08:15:04;;;;;;;9.20;6.80;;;;;;;22.21;100.00;99251.45;104856;1256;73371;-56
2023/07/14 08:17:31;;;;;;;7.90;7.10;;;;;;;22.25;100.00;99249.67;104893;1257;69979;-56
2023/07/14 08:19:59;;;;;;;9.30;7.50;;;;;;;22.27;100.00;99248.95;104967;1257;72485;-56
2023/07/14 08:22:26;;;;;;;9.70;6.80;;;;;;;22.33;100.00;99249.60;104515;1267;61801;-58
2023/07/14 08:24:55;;;;;;;6.80;6.20;;;;;;;22.38;100.00;99251.63;104753;1257;59839;-56
2023/07/14 08:27:22;;;;;;;8.90;6.90;;;;;;;22.43;100.00;99252.02;104646;1260;71934;-56
2023/07/14 08:29:49;;;;;;;7.80;7.20;;;;;;;22.48;100.00;99255.33;104458;1259;68221;-56
2023/07/14 08:32:16;;;;;;;9.60;6.80;;;;;;;22.58;100.00;99256.44;104522;1261;73613;-56
2023/07/14 08:34:43;;;;;;;8.30;7.10;;;;;;;22.71;100.00;99257.80;104321;1262;61807;-56
2023/07/14 08:37:10;;;;;;;8.50;7.60;;;;;;;22.81;100.00;99259.20;104156;1259;60219;-58
2023/07/14 08:39:38;;;;;;;8.70;6.90;;;;;;;22.89;100.00;99263.16;104479;1261;73498;-56
2023/07/14 08:42:21;;;;;;;8.50;6.90;;;;;;;23.00;100.00;99265.84;104708;1260;69851;-57
2023/07/14 08:45:14;;;;;;;7.60;6.80;;;;;;;23.14;100.00;99257.36;104438;1266;72349;-57
2023/07/14 08:48:05;;;;;;;7.40;6.60;;;;;;;23.28;100.00;99258.04;104367;1259;62153;-56
2023/07/14 08:50:32;;;;;;;9.80;6.70;;;;;;;23.42;100.00;99262.36;104603;1259;59759;-55
2023/07/14 08:53:04;;;;;;;9.70;6.80;;;;;;;23.56;100.00;99257.38;104271;1262;73824;-56
2023/07/14 08:55:34;;;;;;;6.50;5.90;;;;;;;23.67;100.00;99252.92;104308;1264;69455;-55
2023/07/14 08:58:14;;;;;;;7.40;6.60;;;;;;;23.80;100.00;99250.95;104201;1260;72953;-55
2023/07/14 09:00:51;;;;;;;7.10;6.40;;;;;;;23.96;100.00;99253.20;104641;1259;62555;-55
2023/07/14 09:03:46;;;;;;;7.00;6.10;;;;;;;24.10;100.00;99246.50;104313;1264;59657;-56
2023/07/14 09:06:16;;;;;;;6.60;5.80;;;;;;;24.24;100.00;99244.87;104434;1260;73402;-58
2023/07/14 09:08:44;;;;;;;7.10;6.20;;;;;;;24.32;100.00;99239.24;104427;1263;70165;-56
2023/07/14 09:11:32;;;;;;;8.70;5.70;;;;;;;24.38;100.00;99239.63;104511;1254;73029;-55
2023/07/14 09:14:13;;;;;;;;;;;;;;;24.46;100.00;99244.89;104384;1260;62102;-57
2023/07/14 09:16:47;;;;;;;8.10;5.60;;;;;;;24.47;100.00;99240.92;104445;1257;59772;-56
2023/07/14 09:19:41;;;;;;;6.20;5.70;;;;;;;24.53;100.00;99244.59;104803;1257;73599;-56
2023/07/14 09:22:39;;;;;;;6.90;5.60;;;;;;;24.60;100.00;99236.02;104771;1262;70094;-56
2023/07/14 09:25:18;;;;;;;6.20;5.60;;;;;;;24.69;100.00;99230.75;104474;1267;73164;-56
2023/07/14 09:27:46;;;;;;;8.80;5.90;;;;;;;24.78;100.00;99229.31;104434;1254;62665;-56
2023/07/14 09:30:18;;;;;;;8.70;5.70;;;;;;;24.86;100.00;99227.46;104643;1255;60021;-56
2023/07/14 09:32:51;;;;;;;7.50;5.80;;;;;;;24.96;100.00;99223.40;104897;1257;72848;-56
2023/07/14 09:35:24;;;;;;;7.40;5.90;;;;;;;25.06;100.00;99221.41;104400;1253;69252;-58
2023/07/14 09:38:38;;;;;;;6.70;5.50;;;;;;;25.18;100.00;99222.40;104478;1254;73710;-57
2023/07/14 09:41:05;;;;;;;10.50;6.50;;;;;;;25.28;100.00;99220.91;104196;1261;61415;-56
2023/07/14 09:43:34;;;;;;;16.10;6.60;;;;;;;25.39;100.00;99214.16;104394;1254;60591;-57
2023/07/14 09:46:01;;;;;;;6.90;6.10;;;;;;;25.53;100.00;99220.19;104494;1258;73502;-56
2023/07/14 09:48:31;;;;;;;8.40;6.10;;;;;;;25.67;100.00;99220.23;104529;1255;69936;-57
2023/07/14 09:51:00;;;;;;;9.90;5.80;;;;;;;25.82;100.00;99221.16;104383;1254;73327;-56
2023/07/14 09:53:31;;;;;;;6.90;5.30;;;;;;;25.96;100.00;99221.95;104384;1253;62015;-57
2023/07/14 09:56:01;;;;;;;6.30;5.30;;;;;;;26.11;100.00;99220.96;104597;1254;60841;-57
2023/07/14 09:58:29;;;;;;;6.80;4.90;;;;;;;26.23;100.00;99212.63;104498;1257;74306;-58
2023/07/14 10:00:57;;;;;;;5.60;4.40;;;;;;;26.33;100.00;99217.52;104260;1256;68219;-58
2023/07/14 10:03:30;;;;;;;5.20;4.70;;;;;;;26.42;100.00;99208.84;104303;1258;72851;-59
2023/07/14 10:06:16;;;;;;;8.00;4.50;;;;;;;26.52;100.00;99206.88;104597;1269;61386;-58
2023/07/14 10:08:58;;;;;;;8.20;4.50;;;;;;;26.62;100.00;99205.76;106329;1254;60598;-58
2023/07/14 10:11:40;;;;;;;5.50;4.20;;;;;;;26.74;100.00;99205.77;108255;1253;73776;-58
2023/07/14 10:14:36;;;;;;;4.50;4.10;;;;;;;26.85;100.00;99202.35;104591;1260;70137;-58
2023/07/14 10:17:04;;;;;;;7.30;4.10;;;;;;;26.95;100.00;99204.59;104956;1254;71677;-58
2023/07/14 10:19:38;;;;;;;5.20;3.90;;;;;;;27.01;100.00;99200.41;104783;1256;61764;-57
2023/07/14 10:22:12;;;;;;;6.00;3.40;;;;;;;27.09;100.00;99205.19;104299;1256;60620;-57
2023/07/14 10:24:39;;;;;;;5.60;3.60;;;;;;;27.18;100.00;99211.32;104394;1257;74208;-59
2023/07/14 10:27:18;;;;;;;5.40;3.00;;;;;;;27.28;100.00;99207.14;104528;1254;69543;-57
2023/07/14 10:29:51;;;;;;;6.10;3.30;;;;;;;27.36;100.00;99208.71;104802;1253;73127;-59
2023/07/14 10:32:44;;;;;;;3.30;3.00;;;;;;;27.45;100.00;99201.91;104806;1260;61570;-57
2023/07/14 10:35:13;;;;;;;4.50;2.80;;;;;;;27.53;100.00;99197.59;104513;1261;60562;-58
2023/07/14 10:37:49;;;;;;;7.80;2.70;;;;;;;27.65;100.00;99192.33;104765;1257;74936;-58
2023/07/14 10:40:21;;;;;;;4.30;2.70;;;;;;;27.77;100.00;99191.92;104714;1254;70114;-58
2023/07/14 10:42:59;;;;;;;3.50;2.80;;;;;;;27.88;100.00;99195.47;104862;1254;72470;-57
2023/07/14 10:45:26;;;;;;;3.20;2.60;;;;;;;27.99;100.00;99196.63;104616;1254;61739;-57
2023/07/14 10:47:59;;;;;;;4.30;2.60;;;;;;;28.07;100.00;99191.81;104478;1259;60469;-57
2023/07/14 10:50:31;;;;;;;3.60;2.90;;;;;;;28.07;100.00;99187.16;104411;1254;73519;-57
2023/07/14 10:53:20;;;;;;;6.90;2.60;;;;;;;27.96;100.00;99190.86;104436;1256;69316;-57
2023/07/14 10:55:47;;;;;;;3.20;2.50;;;;;;;27.81;100.00;99196.58;104715;1254;73054;-57
2023/07/14 10:58:29;;;;;;;9.20;2.80;;;;;;;27.71;100.00;99194.12;104769;1263;61907;-58
2023/07/14 11:01:01;;;;;;;3.50;2.80;;;;;;;27.55;100.00;99199.38;104737;1253;60375;-56
2023/07/14 11:03:43;;;;;;;5.10;2.60;;;;;;;27.41;100.00;99205.55;104458;1253;73848;-58
2023/07/14 11:06:13;;;;;;;6.30;2.90;;;;;;;27.31;100.00;99208.46;104595;1254;70263;-57
2023/07/14 11:08:40;;;;;;;6.60;2.70;;;;;;;27.19;100.00;99208.61;105977;1254;72224;-57
2023/07/14 11:11:27;;;;;;;2.70;2.50;;;;;;;27.11;100.00;99208.38;104563;1269;61487;-57
2023/07/14 11:14:00;;;;;;;4.40;2.50;;;;;;;27.04;100.00;99203.69;104723;1254;60463;-58
2023/07/14 11:17:00;;;;;;;5.10;2.40;;;;;;;27.00;100.00;99206.29;104432;1270;73407;-58
2023/07/14 11:19:40;;;;;;;6.60;3.00;;;;;;;26.99;100.00;99207.48;104654;1255;70109;-57
2023/07/14 11:22:29;;;;;;;7.50;3.20;;;;;;;26.89;100.00;99210.88;105130;1254;73063;-57
2023/07/14 11:25:34;;;;;;;3.40;2.70;;;;;;;26.74;100.00;99209.71;104470;1258;61872;-57
2023/07/14 11:28:13;;;;;;;3.40;3.10;;;;;;;26.61;100.00;99209.77;104312;1254;60489;-58
2023/07/14 11:30:42;;;;;;;5.20;3.30;;;;;;;26.57;100.00;99209.02;104514;1253;74313;-56
2023/07/14 11:33:12;;;;;;;5.70;3.00;;;;;;;26.57;100.00;99212.84;104357;1262;70134;-56
2023/07/14 11:35:58;;;;;;;3.20;2.70;;;;;;;26.59;100.00;99206.30;104619;1262;72483;-58
2023/07/14 11:38:38;;;;;;;2.50;2.20;;;;;;;26.64;100.00;99201.02;105084;1259;61584;-56
2023/07/14 11:41:05;;;;;;;3.10;2.50;;;;;;;26.70;100.00;99203.08;104616;1254;60205;-58